Time;durP1;ratioP1;P1;durP2;ratioP2;P2;SDS_P1;SDS_P2;PMS_P1;PMS_P2;Temp;Humidity;BMP_temperature;BMP_pressure;BME280_temperature;BME280_humidity;BME280_pressure;Samples;Min_cycle;Max_cycle;Signal;HPM_P1;HPM_P2
2022/06/22 00:01:57;;;;;;;18.02;10.40;;;;;;;14.46;94.46;101335.00;5060098;28;20037;-72
2022/06/22 00:04:30;;;;;;;17.10;10.43;;;;;;;14.42;94.82;101341.56;5055501;28;20434;-73
2022/06/22 00:07:01;;;;;;;17.30;11.25;;;;;;;14.44;94.93;101348.50;5045645;28;20717;-72
2022/06/22 00:09:34;;;;;;;17.38;10.07;;;;;;;14.53;94.30;101349.72;5046114;28;20072;-72
2022/06/22 00:12:01;;;;;;;17.65;9.65;;;;;;;14.41;95.28;101358.63;5045354;28;20517;-72
2022/06/22 00:14:36;;;;;;;20.83;11.88;;;;;;;14.38;95.14;101364.19;5060944;28;20558;-72
2022/06/22 00:17:02;;;;;;;17.85;10.35;;;;;;;14.28;95.20;101358.63;5051439;28;20048;-72
2022/06/22 00:19:30;;;;;;;13.35;9.55;;;;;;;14.24;95.63;101355.28;5063169;28;20040;-72
2022/06/22 00:21:56;;;;;;;21.60;10.63;;;;;;;14.12;95.68;101356.16;5056816;28;20068;-72
2022/06/22 00:24:22;;;;;;;16.35;10.45;;;;;;;14.04;96.08;101361.19;5042646;28;20490;-72
2022/06/22 00:27:10;;;;;;;18.08;10.63;;;;;;;14.11;95.02;101367.88;5047487;28;20398;-72
2022/06/22 00:29:36;;;;;;;19.38;10.73;;;;;;;14.23;95.45;101369.69;5050329;28;20041;-72
2022/06/22 00:32:24;;;;;;;24.30;11.30;;;;;;;14.09;95.55;101376.97;5043091;28;20140;-73
2022/06/22 00:34:50;;;;;;;19.42;10.95;;;;;;;14.14;95.51;101381.03;5043496;28;20037;-71
2022/06/22 00:37:30;;;;;;;18.42;10.25;;;;;;;14.02;95.79;101373.00;5048934;28;20039;-72
2022/06/22 00:40:00;;;;;;;17.92;10.88;;;;;;;13.92;95.54;101368.28;5049061;28;20040;-71
2022/06/22 00:42:40;;;;;;;18.65;11.38;;;;;;;14.00;96.10;101362.38;5041812;28;20079;-73
2022/06/22 00:45:26;;;;;;;24.48;10.95;;;;;;;13.91;95.75;101358.53;5038197;28;20076;-72
2022/06/22 00:48:01;;;;;;;24.98;11.15;;;;;;;13.88;95.58;101361.41;5023908;28;20055;-72
2022/06/22 00:51:13;;;;;;;21.02;11.32;;;;;;;13.88;96.34;101355.19;5026909;28;20039;-72
2022/06/22 00:53:59;;;;;;;19.98;11.10;;;;;;;13.79;97.54;101354.00;5042572;28;20060;-72
2022/06/22 00:56:52;;;;;;;28.38;12.80;;;;;;;13.82;97.34;101352.94;5052880;28;20040;-72
2022/06/22 00:59:35;;;;;;;22.13;10.85;;;;;;;13.80;96.99;101353.03;5028857;28;20088;-72
2022/06/22 01:02:37;;;;;;;25.48;10.98;;;;;;;13.81;97.09;101356.59;5041936;28;20033;-72
2022/06/22 01:05:15;;;;;;;16.98;11.20;;;;;;;13.48;97.09;101356.06;5057012;28;20041;-70
2022/06/22 01:07:55;;;;;;;19.88;10.95;;;;;;;13.40;99.03;101344.16;5060629;28;20033;-72
2022/06/22 01:10:39;;;;;;;22.77;11.05;;;;;;;13.40;100.00;101334.31;5049122;28;20048;-74
2022/06/22 01:13:34;;;;;;;26.67;12.32;;;;;;;13.34;100.00;101342.75;5054654;28;20048;-72
2022/06/22 01:16:10;;;;;;;18.90;11.88;;;;;;;13.26;100.00;101341.56;5036203;28;20118;-72
2022/06/22 01:18:46;;;;;;;19.85;12.48;;;;;;;13.15;100.00;101336.84;5056011;28;20044;-72
2022/06/22 01:21:24;;;;;;;25.15;12.65;;;;;;;13.08;100.00;101328.38;5041523;28;20053;-72
2022/06/22 01:24:15;;;;;;;27.08;13.25;;;;;;;13.19;100.00;101330.34;5045156;28;20337;-72
2022/06/22 01:26:48;;;;;;;24.05;13.18;;;;;;;13.02;100.00;101320.75;5040787;28;20033;-72
2022/06/22 01:29:23;;;;;;;25.48;13.23;;;;;;;13.05;100.00;101312.53;5030733;28;20051;-72
2022/06/22 01:32:06;;;;;;;21.60;13.38;;;;;;;13.00;100.00;101316.44;5042092;28;20048;-72
2022/06/22 01:34:37;;;;;;;;;;;;;;;12.93;100.00;101307.97;5043050;28;20077;-73
2022/06/22 01:37:05;;;;;;;30.13;12.88;;;;;;;12.86;100.00;101312.03;5042164;28;19964;-73
2022/06/22 01:39:32;;;;;;;20.15;13.40;;;;;;;12.84;100.00;101312.09;5041984;28;20662;-72
2022/06/22 01:41:59;;;;;;;32.30;15.13;;;;;;;12.99;100.00;101314.75;5023375;28;20774;-73
2022/06/22 01:44:44;;;;;;;23.60;14.27;;;;;;;12.89;100.00;101319.84;5044746;28;20076;-73
2022/06/22 01:47:40;;;;;;;31.92;14.10;;;;;;;12.94;100.00;101333.78;5061328;28;20146;-73
2022/06/22 01:50:21;;;;;;;22.75;13.45;;;;;;;12.95;100.00;101341.72;5065126;28;20036;-73
2022/06/22 01:53:03;;;;;;;24.35;13.10;;;;;;;12.89;100.00;101346.59;5044641;28;20044;-73
2022/06/22 01:55:37;;;;;;;20.52;13.13;;;;;;;13.01;100.00;101353.00;5024043;28;20136;-73
2022/06/22 01:58:14;;;;;;;28.05;13.40;;;;;;;12.93;100.00;101345.44;5032011;28;20500;-73
2022/06/22 02:00:52;;;;;;;22.42;13.82;;;;;;;12.79;100.00;101342.81;5026598;28;20044;-73
2022/06/22 02:04:09;;;;;;;24.10;14.25;;;;;;;12.84;100.00;101330.84;5051388;28;20052;-72
2022/06/22 02:09:48;;;;;;;21.05;13.82;;;;;;;12.74;100.00;101328.88;4983251;28;20452;-73
2022/06/22 02:12:20;;;;;;;32.20;13.75;;;;;;;12.58;100.00;101327.19;4968071;28;20046;-72
2022/06/22 02:14:57;;;;;;;26.65;14.65;;;;;;;12.53;100.00;101315.91;4986025;28;20042;-73
2022/06/22 02:17:27;;;;;;;26.77;14.70;;;;;;;12.49;100.00;101324.22;4986350;28;20134;-73
2022/06/22 02:20:18;;;;;;;25.17;14.95;;;;;;;12.56;100.00;101317.53;4985900;28;20066;-73
2022/06/22 02:22:46;;;;;;;28.77;15.95;;;;;;;12.59;100.00;101322.69;4984547;28;20157;-73
2022/06/22 02:25:14;;;;;;;28.42;15.85;;;;;;;12.46;100.00;101317.28;4971351;28;20693;-73
2022/06/22 02:27:40;;;;;;;32.03;16.63;;;;;;;12.39;100.00;101307.91;4984596;28;20050;-73
2022/06/22 02:30:06;;;;;;;29.90;16.08;;;;;;;12.27;100.00;101308.69;4983754;28;20054;-72
2022/06/22 02:32:37;;;;;;;28.70;15.18;;;;;;;12.34;100.00;101310.88;4983966;28;20042;-73
2022/06/22 02:35:04;;;;;;;30.88;15.73;;;;;;;12.43;100.00;101306.75;4983712;28;20521;-73
2022/06/22 02:37:33;;;;;;;31.73;16.10;;;;;;;12.34;100.00;101299.31;4983916;28;20093;-73
2022/06/22 02:40:03;;;;;;;28.13;16.33;;;;;;;12.14;100.00;101303.25;4983417;28;20062;-72
2022/06/22 02:45:17;;;;;;;29.88;16.65;;;;;;;12.25;100.00;101299.88;5027854;28;20040;-73
2022/06/22 02:47:45;;;;;;;32.63;16.45;;;;;;;12.27;100.00;101303.34;5044998;28;20033;-74
2022/06/22 02:50:26;;;;;;;28.65;18.58;;;;;;;12.31;100.00;101307.56;5045057;28;20557;-73
2022/06/22 02:52:55;;;;;;;29.95;16.42;;;;;;;12.24;100.00;101300.84;5045437;28;20060;-73
2022/06/22 02:55:24;;;;;;;31.67;17.83;;;;;;;12.23;100.00;101291.97;5060732;28;20047;-73
2022/06/22 02:57:53;;;;;;;31.63;17.00;;;;;;;12.31;100.00;101279.00;5049453;28;20041;-72
2022/06/22 03:00:25;;;;;;;31.52;17.17;;;;;;;12.25;100.00;101273.16;5044300;28;20033;-73
2022/06/22 03:02:58;;;;;;;;;;;;;;;12.28;100.00;101256.91;5045073;28;20052;-73
2022/06/22 03:05:25;;;;;;;31.00;16.08;;;;;;;12.14;100.00;101261.31;5057712;28;19969;-73
2022/06/22 03:07:56;;;;;;;32.47;16.85;;;;;;;12.10;100.00;101250.94;5043835;28;20033;-72
2022/06/22 03:10:42;;;;;;;36.35;17.98;;;;;;;12.10;100.00;101240.25;5044494;28;20068;-72
2022/06/22 03:13:12;;;;;;;28.38;17.27;;;;;;;12.02;100.00;101239.88;5044235;28;20475;-72
2022/06/22 03:15:38;;;;;;;35.92;18.60;;;;;;;12.04;100.00;101237.94;5058602;28;20055;-73
2022/06/22 03:18:05;;;;;;;27.92;17.65;;;;;;;12.02;100.00;101232.72;5045331;28;20041;-72
2022/06/22 03:20:41;;;;;;;33.97;17.77;;;;;;;11.96;100.00;101230.44;5056418;28;20044;-72
2022/06/22 03:23:20;;;;;;;35.10;18.15;;;;;;;12.00;100.00;101233.75;5043585;28;20539;-72
2022/06/22 03:25:54;;;;;;;33.88;17.42;;;;;;;12.04;100.00;101246.81;5043520;28;20052;-73
2022/06/22 03:28:31;;;;;;;34.70;17.42;;;;;;;12.18;100.00;101251.31;5025309;28;20036;-73
2022/06/22 03:31:02;;;;;;;32.58;16.75;;;;;;;12.35;100.00;101255.56;5053311;28;20064;-73
2022/06/22 03:33:37;;;;;;;36.17;18.05;;;;;;;12.39;100.00;101260.63;5059317;28;20041;-73
2022/06/22 03:36:17;;;;;;;31.15;17.95;;;;;;;12.61;100.00;101261.94;5021206;28;20144;-73
2022/06/22 03:38:55;;;;;;;35.67;18.02;;;;;;;12.76;100.00;101276.13;5041111;28;20029;-73
2022/06/22 03:41:26;;;;;;;35.63;17.92;;;;;;;12.77;100.00;101278.69;5042376;28;20884;-73
2022/06/22 03:43:58;;;;;;;36.03;17.70;;;;;;;12.84;100.00;101287.16;5061548;28;20047;-73
2022/06/22 03:46:30;;;;;;;31.33;16.95;;;;;;;12.94;100.00;101293.63;5050948;28;20075;-73
2022/06/22 03:49:07;;;;;;;25.90;15.35;;;;;;;13.13;99.93;101299.47;5057754;28;20533;-73
2022/06/22 03:51:47;;;;;;;31.08;17.67;;;;;;;12.98;100.00;101303.19;5042756;28;20450;-74
2022/06/22 03:54:33;;;;;;;27.77;15.20;;;;;;;13.16;99.23;101295.75;5021019;28;20179;-73
2022/06/22 03:57:03;;;;;;;27.10;14.20;;;;;;;13.09;98.70;101302.47;5037016;28;20046;-73
2022/06/22 03:59:31;;;;;;;28.42;15.05;;;;;;;13.10;97.73;101301.50;5042482;28;20769;-73
2022/06/22 04:01:59;;;;;;;26.17;14.90;;;;;;;13.05;97.90;101301.84;5024136;28;20044;-72
2022/06/22 04:04:24;;;;;;;23.60;14.32;;;;;;;12.73;98.90;101287.88;5024826;28;20047;-73
2022/06/22 04:06:54;;;;;;;26.00;14.98;;;;;;;12.63;100.00;101290.28;5057073;28;20504;-73
2022/06/22 04:09:22;;;;;;;26.50;15.25;;;;;;;12.72;100.00;101294.19;5042337;28;20535;-73
2022/06/22 04:12:14;;;;;;;28.30;14.40;;;;;;;12.69;99.58;101297.91;5052776;28;20131;-72
2022/06/22 04:14:47;;;;;;;32.67;15.77;;;;;;;12.48;100.00;101291.28;5028722;28;20151;-73
2022/06/22 04:17:23;;;;;;;29.45;16.45;;;;;;;12.47;100.00;101283.34;5042226;28;20033;-72
2022/06/22 04:20:20;;;;;;;28.83;16.75;;;;;;;12.74;100.00;101286.91;5058225;28;20102;-72
2022/06/22 04:22:52;;;;;;;30.67;16.25;;;;;;;12.91;100.00;101288.50;5042597;28;20071;-72
2022/06/22 04:25:31;;;;;;;27.10;17.63;;;;;;;12.78;100.00;101291.09;5043182;28;20045;-73
2022/06/22 04:28:02;;;;;;;31.00;16.25;;;;;;;12.71;100.00;101287.13;5046983;28;20116;-72
2022/06/22 04:30:35;;;;;;;32.78;16.73;;;;;;;12.81;100.00;101282.88;5044452;28;20068;-73
2022/06/22 04:33:26;;;;;;;31.65;17.30;;;;;;;12.93;100.00;101279.38;5042616;28;20143;-74
2022/06/22 04:36:08;;;;;;;32.47;17.52;;;;;;;12.81;100.00;101277.53;5045912;28;20418;-73
2022/06/22 04:38:51;;;;;;;31.08;16.85;;;;;;;12.88;100.00;101272.63;5050964;28;20059;-73
2022/06/22 04:41:24;;;;;;;34.67;18.90;;;;;;;12.92;100.00;101271.47;5048796;28;20052;-74
2022/06/22 04:43:51;;;;;;;39.72;18.63;;;;;;;12.94;100.00;101277.56;5058136;28;20067;-73
2022/06/22 04:46:28;;;;;;;23.65;16.23;;;;;;;12.91;100.00;101267.94;5024646;28;20040;-73
2022/06/22 04:48:57;;;;;;;34.85;18.83;;;;;;;13.01;100.00;101265.50;5042659;28;20045;-73
2022/06/22 04:51:34;;;;;;;33.75;17.13;;;;;;;12.96;100.00;101267.63;5045462;28;20028;-73
2022/06/22 04:54:22;;;;;;;30.92;17.05;;;;;;;13.54;100.00;101270.88;5039045;28;20041;-73
2022/06/22 04:56:51;;;;;;;26.65;17.92;;;;;;;15.10;93.57;101278.41;5048329;28;20040;-73
2022/06/22 04:59:18;;;;;;;31.40;17.40;;;;;;;15.37;90.82;101278.16;5023324;28;20565;-72
2022/06/22 05:01:59;;;;;;;28.05;15.02;;;;;;;17.31;82.09;101274.13;5058135;28;20376;-73
2022/06/22 05:04:30;;;;;;;26.77;15.32;;;;;;;18.21;76.86;101267.28;5030353;28;20143;-73
2022/06/22 05:07:01;;;;;;;20.25;12.88;;;;;;;19.23;71.88;101276.03;5058934;28;20550;-73
2022/06/22 05:09:40;;;;;;;20.40;12.85;;;;;;;18.59;73.54;101278.22;5059905;28;20658;-73
2022/06/22 05:12:18;;;;;;;16.58;12.65;;;;;;;18.80;74.13;101278.16;5040592;28;20106;-74
2022/06/22 05:14:44;;;;;;;20.92;11.98;;;;;;;18.29;73.38;101278.28;5043159;28;20055;-73
2022/06/22 05:17:27;;;;;;;16.63;12.57;;;;;;;18.99;71.78;101277.31;5047956;28;20037;-73
2022/06/22 05:20:13;;;;;;;18.45;11.77;;;;;;;19.29;70.45;101280.88;5057286;28;20057;-73
2022/06/22 05:22:38;;;;;;;17.30;12.38;;;;;;;19.70;69.29;101292.41;5044695;28;20036;-73
2022/06/22 05:25:07;;;;;;;17.83;12.25;;;;;;;19.51;71.32;101290.53;5052879;28;20633;-73
2022/06/22 05:27:58;;;;;;;23.40;11.90;;;;;;;19.39;70.03;101296.09;5038656;28;20059;-73
2022/06/22 05:30:25;;;;;;;16.95;10.93;;;;;;;18.95;71.30;101299.38;5055477;28;20043;-73
2022/06/22 05:32:55;;;;;;;19.00;11.70;;;;;;;19.12;69.86;101315.72;5073038;28;20059;-74
2022/06/22 05:35:32;;;;;;;17.48;10.68;;;;;;;19.88;67.86;101310.47;5063739;28;20036;-75
2022/06/22 05:38:00;;;;;;;14.27;10.77;;;;;;;19.36;69.52;101317.16;5062307;28;20107;-74
2022/06/22 05:40:28;;;;;;;21.98;11.70;;;;;;;19.39;69.46;101317.75;5065641;28;20099;-73
2022/06/22 05:42:55;;;;;;;16.23;10.35;;;;;;;20.29;67.54;101318.31;5056303;28;20128;-73
2022/06/22 05:45:27;;;;;;;16.52;10.60;;;;;;;20.89;64.89;101316.88;5059549;28;20032;-74
2022/06/22 05:47:55;;;;;;;18.25;11.60;;;;;;;19.72;68.95;101339.09;5062078;28;20041;-73
2022/06/22 05:50:39;;;;;;;21.25;11.93;;;;;;;20.95;64.94;101326.25;5043871;28;20076;-73
2022/06/22 05:53:17;;;;;;;17.95;11.82;;;;;;;21.40;62.50;101328.94;5054938;28;20048;-73
2022/06/22 05:55:46;;;;;;;18.05;10.65;;;;;;;21.24;63.46;101328.78;5056128;28;20041;-73
2022/06/22 05:58:28;;;;;;;15.88;10.35;;;;;;;21.34;63.08;101336.88;5052425;28;20040;-73
2022/06/22 06:00:58;;;;;;;13.05;9.85;;;;;;;21.80;60.72;101333.00;5055776;28;20067;-73
2022/06/22 06:04:14;;;;;;;17.83;10.43;;;;;;;20.73;62.91;101332.94;5047673;28;20045;-73
2022/06/22 06:06:42;;;;;;;13.60;10.73;;;;;;;20.77;63.12;101328.94;5027966;28;20052;-73
2022/06/22 06:09:19;;;;;;;17.65;11.20;;;;;;;21.32;61.72;101336.16;5049704;28;20726;-73
2022/06/22 06:11:54;;;;;;;17.88;10.13;;;;;;;22.39;59.70;101338.66;5057326;28;20037;-73
2022/06/22 06:14:27;;;;;;;11.98;9.15;;;;;;;21.03;62.55;101342.59;5058976;28;20080;-74
2022/06/22 06:16:58;;;;;;;12.63;9.75;;;;;;;21.64;61.27;101341.88;5033403;28;20044;-73
2022/06/22 06:19:30;;;;;;;11.68;8.95;;;;;;;21.91;59.91;101332.75;5053112;28;20082;-73
2022/06/22 06:21:59;;;;;;;12.73;9.73;;;;;;;21.52;62.03;101339.56;5063429;28;20037;-74
2022/06/22 06:24:35;;;;;;;12.43;9.07;;;;;;;21.94;61.04;101331.59;5048199;28;20115;-73
2022/06/22 06:30:15;;;;;;;15.55;9.70;;;;;;;21.13;61.09;101332.53;5065881;28;20118;-73
2022/06/22 06:32:57;;;;;;;12.63;8.65;;;;;;;20.92;61.62;101340.09;5070689;28;20191;-75
2022/06/22 06:35:33;;;;;;;11.00;8.93;;;;;;;21.87;60.72;101325.91;5054263;28;20369;-73
2022/06/22 06:38:17;;;;;;;17.60;8.93;;;;;;;21.84;62.09;101325.38;5032148;28;20041;-72
2022/06/22 06:41:04;;;;;;;12.57;8.50;;;;;;;21.09;60.97;101324.88;5050539;28;20056;-73
2022/06/22 06:43:38;;;;;;;14.27;8.95;;;;;;;21.46;61.52;101319.31;5043923;28;20047;-73
2022/06/22 06:46:13;;;;;;;17.52;8.85;;;;;;;21.98;60.98;101309.34;5043655;28;20498;-70
2022/06/22 06:48:43;;;;;;;17.13;8.90;;;;;;;21.58;60.52;101322.63;5043662;28;20064;-70
2022/06/22 06:51:12;;;;;;;11.73;8.68;;;;;;;22.21;60.38;101320.56;5059889;28;20037;-73
2022/06/22 06:53:52;;;;;;;11.45;8.85;;;;;;;21.66;60.31;101330.84;5034978;28;20066;-72
2022/06/22 06:56:33;;;;;;;14.98;8.15;;;;;;;21.33;61.15;101327.00;5061197;28;20528;-72
2022/06/22 06:59:04;;;;;;;10.30;7.63;;;;;;;21.57;60.70;101316.34;5050010;28;20047;-72
2022/06/22 07:01:35;;;;;;;12.93;8.73;;;;;;;21.96;60.60;101329.56;5027944;28;20044;-72
2022/06/22 07:04:07;;;;;;;10.68;8.52;;;;;;;22.19;58.34;101321.75;5045464;28;20129;-72
2022/06/22 07:06:33;;;;;;;10.13;7.95;;;;;;;21.86;61.10;101329.66;5046188;28;20045;-72
2022/06/22 07:09:16;;;;;;;10.68;7.90;;;;;;;22.13;61.00;101315.09;5056870;28;20040;-72
2022/06/22 07:11:55;;;;;;;9.65;7.18;;;;;;;22.14;58.30;101313.22;5042021;28;20045;-72
2022/06/22 07:14:29;;;;;;;13.40;7.50;;;;;;;22.38;58.60;101318.78;5049743;28;20036;-72
2022/06/22 07:17:03;;;;;;;11.93;7.38;;;;;;;23.03;57.03;101320.06;5042352;28;20041;-72
2022/06/22 07:19:36;;;;;;;10.32;6.78;;;;;;;22.98;56.71;101317.84;5041666;28;20124;-71
2022/06/22 07:22:09;;;;;;;9.68;6.43;;;;;;;23.13;57.20;101321.59;5042273;28;20102;-71
2022/06/22 07:24:43;;;;;;;11.85;7.13;;;;;;;22.87;56.03;101318.13;5059104;28;20547;-71
2022/06/22 07:27:27;;;;;;;19.30;6.57;;;;;;;23.21;57.87;101318.91;5041164;28;20049;-72
2022/06/22 07:30:17;;;;;;;12.13;7.32;;;;;;;23.37;55.60;101309.91;5056484;28;20049;-71
2022/06/22 07:32:54;;;;;;;11.10;5.93;;;;;;;22.90;55.56;101309.69;5041194;28;20040;-72
2022/06/22 07:35:34;;;;;;;10.18;6.15;;;;;;;23.37;56.86;101304.47;5019926;28;20045;-72
2022/06/22 07:38:19;;;;;;;8.10;5.80;;;;;;;23.22;55.02;101304.28;5036985;28;20077;-71
2022/06/22 07:43:32;;;;;;;10.50;5.10;;;;;;;23.30;54.59;101308.03;5042698;28;20143;-72
2022/06/22 07:45:58;;;;;;;10.63;5.93;;;;;;;23.48;55.76;101311.44;5049149;28;20043;-72
2022/06/22 07:48:25;;;;;;;11.43;5.15;;;;;;;23.29;54.31;101309.03;5034485;28;20045;-71
2022/06/22 07:50:55;;;;;;;8.05;4.90;;;;;;;23.36;55.76;101308.22;5045893;28;20044;-71
2022/06/22 07:53:33;;;;;;;7.10;4.97;;;;;;;22.97;53.21;101297.09;5059916;28;20043;-71
2022/06/22 07:56:08;;;;;;;8.05;5.18;;;;;;;22.84;56.24;101297.56;5039959;28;20103;-72
2022/06/22 07:58:42;;;;;;;7.93;4.75;;;;;;;23.23;54.14;101299.69;5041102;28;20090;-73
2022/06/22 08:01:14;;;;;;;10.70;4.68;;;;;;;23.34;54.75;101295.78;5057995;28;20048;-71
2022/06/22 08:03:43;;;;;;;;;;;;;;;23.12;52.76;101305.47;5054902;28;20124;-73
2022/06/22 08:06:15;;;;;;;8.43;4.38;;;;;;;22.46;52.16;101294.38;5051787;28;19952;-72
2022/06/22 08:08:56;;;;;;;;;;;;;;;22.68;53.90;101292.91;5041700;28;20126;-72
2022/06/22 08:11:36;;;;;;;10.02;4.80;;;;;;;22.56;56.23;101286.09;5028567;28;20047;-72
2022/06/22 08:14:19;;;;;;;6.95;4.28;;;;;;;22.95;56.65;101296.44;5040337;28;20320;-71
2022/06/22 08:16:48;;;;;;;5.47;3.95;;;;;;;22.79;56.10;101289.03;5044360;28;20498;-72
2022/06/22 08:19:14;;;;;;;8.07;4.40;;;;;;;23.11;55.70;101282.84;5039981;28;20048;-72
2022/06/22 08:21:43;;;;;;;8.50;3.95;;;;;;;22.95;53.91;101285.56;5040882;28;20092;-72
2022/06/22 08:24:11;;;;;;;10.65;3.92;;;;;;;22.73;51.95;101286.97;5036964;28;20205;-71
2022/06/22 08:26:37;;;;;;;7.90;3.70;;;;;;;22.65;54.75;101286.97;5048101;28;20053;-72
2022/06/22 08:29:02;;;;;;;6.93;3.78;;;;;;;22.58;52.27;101291.34;5018813;28;20691;-72
2022/06/22 08:31:33;;;;;;;9.95;4.30;;;;;;;22.48;52.34;101281.44;5005236;28;20525;-72
2022/06/22 08:34:00;;;;;;;6.90;3.30;;;;;;;22.91;50.16;101286.91;5039769;28;20051;-72
2022/06/22 08:36:38;;;;;;;6.32;3.22;;;;;;;23.15;50.51;101283.38;5039554;28;20036;-73
2022/06/22 08:39:31;;;;;;;6.53;2.97;;;;;;;23.15;50.58;101288.81;5008386;28;20139;-73
2022/06/22 08:42:07;;;;;;;7.20;2.67;;;;;;;23.57;48.87;101295.97;5036903;28;20859;-73
2022/06/22 08:45:00;;;;;;;5.00;3.00;;;;;;;23.53;48.83;101292.72;5052839;28;20048;-73
2022/06/22 08:47:53;;;;;;;5.28;3.28;;;;;;;23.52;48.92;101296.47;5022474;28;20032;-71
2022/06/22 08:50:48;;;;;;;4.35;3.17;;;;;;;24.04;46.75;101288.75;5051959;28;20722;-72
2022/06/22 08:53:53;;;;;;;5.57;3.55;;;;;;;23.16;52.38;101294.06;5048381;28;20172;-72
2022/06/22 08:56:44;;;;;;;5.40;3.45;;;;;;;22.75;50.16;101291.25;5044273;28;20793;-73
2022/06/22 08:59:29;;;;;;;7.63;3.30;;;;;;;23.54;49.14;101294.41;5043146;28;20049;-72
2022/06/22 09:02:07;;;;;;;6.32;2.70;;;;;;;23.54;48.02;101297.13;5027782;28;20140;-73
2022/06/22 09:04:47;;;;;;;4.57;2.60;;;;;;;23.56;45.46;101297.00;5047223;28;20033;-72
2022/06/22 09:07:40;;;;;;;6.40;3.22;;;;;;;24.18;47.12;101294.50;5059497;28;20044;-72
2022/06/22 09:10:40;;;;;;;8.05;2.60;;;;;;;24.23;46.99;101298.41;5053681;28;20040;-72
2022/06/22 09:13:08;;;;;;;6.03;2.70;;;;;;;23.60;47.59;101307.38;5037840;28;20044;-72
2022/06/22 09:15:45;;;;;;;5.22;2.88;;;;;;;23.40;50.35;101314.19;5049663;28;20562;-72
2022/06/22 09:18:31;;;;;;;7.15;2.92;;;;;;;23.51;47.66;101308.38;5050039;28;20052;-72
2022/06/22 09:21:42;;;;;;;3.42;2.63;;;;;;;23.96;51.79;101299.69;5029920;28;20570;-71
2022/06/22 09:24:29;;;;;;;5.90;2.63;;;;;;;23.93;49.94;101305.47;5030933;28;20052;-72
2022/06/22 09:27:01;;;;;;;6.85;3.35;;;;;;;23.21;50.60;101307.19;5040395;28;20398;-72
2022/06/22 09:29:36;;;;;;;5.20;3.20;;;;;;;23.85;47.88;101300.06;5021884;28;20600;-72
2022/06/22 09:32:12;;;;;;;7.18;3.22;;;;;;;23.65;47.79;101302.28;5042549;28;20405;-72
2022/06/22 09:34:59;;;;;;;6.47;3.10;;;;;;;23.66;44.33;101295.81;5043108;28;20041;-72
2022/06/22 09:37:37;;;;;;;4.32;2.53;;;;;;;23.83;50.31;101296.63;5043690;28;20048;-71
2022/06/22 09:40:45;;;;;;;5.07;1.95;;;;;;;23.51;46.95;101302.94;5043250;28;20919;-72
2022/06/22 09:43:44;;;;;;;4.85;2.42;;;;;;;23.80;46.89;101299.72;5043308;28;20092;-72
2022/06/22 09:46:16;;;;;;;3.35;2.35;;;;;;;23.41;44.29;101297.66;5043897;28;20106;-71
2022/06/22 09:48:53;;;;;;;4.65;2.42;;;;;;;23.34;46.84;101293.06;5043499;28;20146;-72
2022/06/22 09:51:59;;;;;;;4.55;2.78;;;;;;;22.96;47.17;101300.84;5041935;28;20032;-71
2022/06/22 09:58:01;;;;;;;4.38;2.60;;;;;;;23.91;46.03;101299.34;5042719;28;20049;-72
2022/06/22 10:00:44;;;;;;;3.85;2.67;;;;;;;23.50;44.76;101298.53;5048825;28;20037;-72
2022/06/22 10:03:31;;;;;;;6.68;1.98;;;;;;;23.97;43.28;101298.66;5052966;28;20049;-71
2022/06/22 10:06:28;;;;;;;7.40;1.90;;;;;;;24.35;45.65;101296.19;5046252;28;20047;-71
2022/06/22 10:09:19;;;;;;;3.28;2.70;;;;;;;23.87;44.68;101300.72;5045348;28;20076;-73
2022/06/22 10:12:23;;;;;;;3.97;2.45;;;;;;;24.39;44.07;101299.41;5044843;28;20581;-72
2022/06/22 10:15:06;;;;;;;4.03;1.80;;;;;;;23.88;41.16;101304.28;5039030;28;20128;-71
2022/06/22 10:17:48;;;;;;;3.40;1.75;;;;;;;24.15;41.55;101298.47;5044264;28;20138;-72
2022/06/22 10:20:48;;;;;;;4.65;1.70;;;;;;;24.63;38.10;101290.28;5038126;28;20043;-72
2022/06/22 10:23:32;;;;;;;5.03;2.20;;;;;;;24.86;45.28;101301.25;5042437;28;20063;-72
2022/06/22 10:26:14;;;;;;;3.25;1.98;;;;;;;23.83;40.31;101306.69;5056518;28;20040;-72
2022/06/22 10:28:51;;;;;;;;;;;;;;;24.14;39.81;101294.00;5024221;28;20041;-72
2022/06/22 10:31:41;;;;;;;2.20;1.58;;;;;;;24.67;37.87;101284.28;5036083;28;19916;-73
2022/06/22 10:34:16;;;;;;;3.40;1.70;;;;;;;24.53;38.69;101283.16;5042420;28;20039;-73
2022/06/22 10:36:44;;;;;;;5.28;1.90;;;;;;;24.38;43.01;101289.53;5050711;28;20036;-72
2022/06/22 10:39:45;;;;;;;3.60;1.90;;;;;;;24.66;38.84;101290.78;5040517;28;20039;-72
2022/06/22 10:45:13;;;;;;;3.42;1.88;;;;;;;24.69;38.93;101275.91;5034347;28;20037;-73
2022/06/22 10:47:57;;;;;;;2.22;1.30;;;;;;;24.91;45.11;101275.13;5054716;28;20033;-72
2022/06/22 10:51:00;;;;;;;2.08;1.63;;;;;;;24.40;40.26;101282.03;5045906;28;20037;-72
2022/06/22 10:54:07;;;;;;;2.17;1.40;;;;;;;24.62;38.31;101280.41;5049775;28;20032;-72
2022/06/22 10:56:38;;;;;;;4.88;2.08;;;;;;;24.43;41.86;101279.78;5038298;28;20395;-72
2022/06/22 10:59:25;;;;;;;5.18;2.03;;;;;;;24.35;37.55;101276.22;5047562;28;20435;-73
2022/06/22 11:02:05;;;;;;;2.38;1.65;;;;;;;24.93;37.42;101269.47;5048643;28;20040;-73
2022/06/22 11:04:55;;;;;;;3.33;1.55;;;;;;;24.96;43.70;101269.13;5047021;28;20041;-72
2022/06/22 11:07:58;;;;;;;1.75;1.33;;;;;;;24.25;38.86;101266.41;5046618;28;20035;-73
2022/06/22 11:10:44;;;;;;;3.35;1.88;;;;;;;24.69;37.47;101273.19;5045615;28;20124;-72
2022/06/22 11:13:15;;;;;;;3.90;1.55;;;;;;;25.00;39.11;101270.44;5032441;28;20459;-73
2022/06/22 11:15:59;;;;;;;6.18;1.80;;;;;;;24.66;40.95;101270.84;5051241;28;20488;-72
2022/06/22 11:18:48;;;;;;;2.72;1.75;;;;;;;24.85;37.06;101259.47;5037851;28;20048;-73
2022/06/22 11:21:35;;;;;;;4.03;1.58;;;;;;;25.28;39.32;101262.59;5040231;28;20056;-74
2022/06/22 11:24:13;;;;;;;2.92;1.98;;;;;;;25.14;37.59;101250.56;5042271;28;20048;-73
2022/06/22 11:33:09;;;;;;;2.25;1.20;;;;;;;24.56;37.22;101249.25;5049658;28;20037;-72
2022/06/22 11:36:04;;;;;;;1.85;1.60;;;;;;;25.18;37.85;101254.66;5051388;28;20033;-72
2022/06/22 11:38:55;;;;;;;3.97;1.70;;;;;;;24.99;35.89;101252.38;5040250;28;20037;-72
2022/06/22 11:41:39;;;;;;;3.70;1.50;;;;;;;24.61;36.14;101248.72;5048377;28;20048;-73
2022/06/22 11:44:44;;;;;;;6.40;2.00;;;;;;;25.27;40.09;101245.38;5044706;28;20802;-72
2022/06/22 11:47:54;;;;;;;3.67;1.70;;;;;;;25.07;40.81;101249.63;5043933;28;20137;-72
2022/06/22 11:50:42;;;;;;;6.18;1.90;;;;;;;24.48;39.39;101244.66;5038294;28;20089;-72
2022/06/22 11:53:21;;;;;;;1.92;1.65;;;;;;;24.65;40.23;101245.44;5048740;28;20037;-72
2022/06/22 11:55:53;;;;;;;5.47;1.95;;;;;;;24.71;36.55;101239.28;5050822;28;20490;-72
2022/06/22 11:58:50;;;;;;;4.85;1.58;;;;;;;24.97;40.21;101236.19;5042777;28;20114;-73
2022/06/22 12:01:43;;;;;;;3.97;1.40;;;;;;;24.89;38.36;101232.66;5037014;28;20048;-73
2022/06/22 12:04:30;;;;;;;4.25;1.80;;;;;;;25.03;34.71;101242.78;5053146;28;20040;-73
2022/06/22 12:07:33;;;;;;;3.70;1.65;;;;;;;25.53;38.35;101246.84;5050826;28;20123;-73
2022/06/22 12:10:27;;;;;;;2.97;1.50;;;;;;;25.53;34.54;101235.91;5043931;28;20083;-73
2022/06/22 12:13:11;;;;;;;3.35;1.85;;;;;;;25.02;36.53;101239.22;5032297;28;20095;-72
2022/06/22 12:15:49;;;;;;;3.72;1.73;;;;;;;25.54;37.38;101241.19;5031769;28;20040;-72
2022/06/22 12:18:23;;;;;;;4.45;1.80;;;;;;;25.44;39.63;101228.81;5040816;28;20825;-71
2022/06/22 12:21:25;;;;;;;5.45;1.52;;;;;;;25.08;38.99;101223.19;5048408;28;20044;-72
2022/06/22 12:24:33;;;;;;;2.42;1.52;;;;;;;25.30;37.61;101228.63;5032424;28;20067;-72
2022/06/22 12:27:20;;;;;;;3.60;1.40;;;;;;;25.28;35.31;101221.63;5026053;28;20049;-70
2022/06/22 12:30:25;;;;;;;4.72;1.85;;;;;;;25.20;40.15;101219.84;5035750;28;20029;-70
2022/06/22 12:32:59;;;;;;;6.45;2.22;;;;;;;25.05;37.60;101222.50;5031722;28;20093;-72